Chadstone Weather > Observations for 17/09/20

Select Day:



Observations
Time Temp Hum DP Wind Gust Dir Rain >9am Press
C % C kph kph mm hPa
00:00 13.7 77 9.7 0.2 2.5 SW 0.0 1024.9
00:10 13.6 77 9.6 0.8 6.1 SSW 0.0 1025.2
00:20 13.6 77 9.6 1.2 7.2 SSW 0.0 1025.4
00:30 13.7 77 9.7 1.7 6.1 SSW 0.0 1025.4
00:40 13.6 77 9.6 2.4 8.6 SSE 0.0 1025.4
00:50 13.6 79 10.0 2.8 12.2 S 0.0 1025.6
01:00 13.6 81 10.4 3.4 9.7 SSW 0.0 1025.7
01:10 13.5 83 10.7 2.7 8.6 SW 0.0 1025.9
01:20 13.4 85 10.9 2.0 11.2 SSW 0.0 1025.8
01:30 13.4 86 11.1 1.5 6.1 S 0.0 1026.0
01:40 13.4 87 11.3 2.7 7.2 SSW 0.0 1026.2
01:50 13.3 88 11.4 2.3 8.6 SSW 0.0 1026.3
02:00 13.4 88 11.5 2.2 11.2 SW 0.0 1026.4
02:10 13.4 89 11.6 2.3 6.1 SW 0.0 1026.4
02:20 13.4 90 11.8 3.5 12.2 SW 0.0 1026.4
02:30 13.4 90 11.8 2.9 7.2 SW 0.0 1026.1
02:40 13.3 91 11.9 2.7 8.6 S 0.0 1026.3
02:50 13.2 92 11.9 2.5 8.6 SSW 0.0 1026.1
03:00 13.1 92 11.8 2.2 7.2 SSW 0.0 1026.1
03:10 13.0 93 11.9 2.9 9.7 WSW 0.3 1026.4
03:20 13.0 94 12.1 1.7 7.2 SSW 0.3 1026.4
03:30 13.0 94 12.1 2.6 9.7 SSW 0.3 1026.6
03:40 13.0 95 12.2 0.8 6.1 SSW 0.3 1027.0
03:50 13.1 95 12.3 0.4 3.6 SW 0.3 1027.3
04:00 13.2 95 12.4 1.4 5.0 SW 0.6 1026.9
04:10 13.0 95 12.2 1.3 5.0 S 0.6 1026.6
04:20 12.9 95 12.1 2.6 6.1 SE 0.6 1026.2
04:30 13.0 95 12.2 3.7 9.7 SE 0.6 1025.9
04:40 12.9 95 12.1 5.7 12.2 SE 0.6 1025.8
04:50 12.8 95 12.0 6.1 11.2 SSE 0.6 1026.3
05:00 12.8 96 12.2 1.2 8.6 SE 0.6 1026.8
05:10 12.9 96 12.3 0.7 3.6 ENE 0.6 1026.5
05:20 13.0 96 12.4 1.4 6.1 E 0.6 1026.8
05:30 13.0 96 12.4 0.6 3.6 ESE 0.6 1027.1
05:40 12.9 96 12.3 0.2 2.5 SW 0.6 1027.4
05:50 12.9 96 12.3 0.3 2.5 NE 0.6 1027.6
06:00 13.0 96 12.4 0.2 3.6 ENE 0.6 1027.7
06:10 13.0 96 12.4 0.3 2.5 E 0.6 1028.0
06:20 13.0 96 12.4 0.2 2.5 ESE 0.6 1028.0
06:30 13.1 96 12.5 0.3 2.5 SE 0.9 1028.3
06:40 13.1 96 12.5 0.2 2.5 E 0.9 1028.4
06:50 13.1 96 12.5 0.1 2.5 SE 0.9 1028.6
07:00 13.1 96 12.5 0.9 3.6 ESE 0.9 1028.7
07:10 13.0 96 12.4 0.5 2.5 SE 0.9 1028.7
07:20 13.0 96 12.4 0.9 3.6 S 0.9 1029.0
07:30 13.0 96 12.4 0.2 3.6 SW 0.9 1029.5
07:40 13.0 96 12.4 0.5 5.0 SW 0.9 1029.8
07:50 13.0 96 12.4 0.7 5.0 SW 1.2 1029.8
08:00 12.9 96 12.3 0.2 3.6 SSW 1.2 1029.9
08:10 12.9 97 12.4 0.6 5.0 S 1.5 1030.2
08:20 12.8 97 12.3 1.8 8.6 S 2.1 1030.3
08:30 12.7 97 12.2 5.1 9.7 ESE 2.4 1030.4
08:40 12.7 97 12.2 3.2 8.6 S 2.4 1030.5
08:50 12.7 97 12.2 3.6 9.7 S 2.4 1030.5
09:00 12.8 97 12.3 3.7 11.2 SSE 0.0 1030.7
09:10 12.8 97 12.3 2.8 12.2 SSW 0.0 1030.6
09:20 12.8 97 12.3 3.9 15.8 S 0.0 1030.6
09:30 13.2 97 12.7 4.2 14.8 SSE 0.0 1030.6
09:40 13.4 97 12.9 3.0 14.8 SSE 0.0 1030.6
09:50 13.7 95 12.9 3.2 9.7 SSW 0.0 1030.7
10:00 14.3 91 12.9 7.0 17.3 SE 0.0 1030.6
10:10 14.4 87 12.3 3.8 12.2 SSE 0.0 1030.9
10:20 14.3 84 11.6 4.8 14.8 SSW 0.0 1030.8
10:30 14.2 82 11.2 4.7 14.8 S 0.0 1031.0
10:40 14.2 81 11.0 3.1 8.6 SSW 0.0 1030.9
10:50 14.2 83 11.4 5.0 14.8 S 0.0 1031.1
11:00 14.2 84 11.5 4.5 9.7 SSE 0.0 1031.1
11:10 14.2 84 11.5 3.8 11.2 SSW 0.0 1031.1
11:20 14.2 84 11.5 7.8 13.3 SSE 0.0 1030.9
11:30 14.2 84 11.5 8.6 12.2 SSE 0.0 1030.9
11:40 14.2 84 11.5 8.6 12.2 SSE 0.0 1030.8
11:50 14.2 84 11.5 8.6 12.2 SSE 0.0 1030.8
12:00 14.2 84 11.5 8.6 12.2 SSE 0.0 1031.0
12:10 14.2 84 11.5 8.6 12.2 SSE 0.0 1031.0
12:20 14.2 84 11.5 8.6 12.2 SSE 0.0 1031.0
12:30 14.2 84 11.5 8.6 12.2 SSE 0.0 1031.1
12:40 14.2 84 11.5 8.6 12.2 SSE 0.0 1030.9
12:50 14.2 84 11.5 8.6 12.2 SSE 0.0 1030.9
13:00 15.0 78 11.2 12.2 18.4 SE 0.0 1030.8
13:10 15.1 77 11.1 9.4 18.4 S 0.0 1030.9
13:20 15.0 77 11.0 2.6 13.3 S 0.0 1030.9
13:30 15.3 74 10.7 9.8 19.4 S 0.0 1030.8
13:40 15.3 75 10.9 12.5 24.5 S 0.0 1031.4
13:50 14.9 79 11.3 10.0 22.0 SSE 0.0 1031.6
14:00 14.6 79 11.0 11.7 24.5 S 0.0 1031.6
14:10 14.9 79 11.3 10.1 20.9 SE 0.0 1031.4
14:20 15.5 77 11.5 9.2 23.4 S 0.0 1031.5
14:30 15.5 76 11.3 10.0 23.4 SSW 0.0 1031.6
14:40 15.0 76 10.8 11.8 27.0 S 0.0 1031.8
14:50 14.8 78 11.0 9.9 20.9 S 0.0 1031.7
15:00 14.9 78 11.1 9.3 25.6 W 0.0 1031.8
15:10 14.8 78 11.0 6.4 18.4 S 0.0 1032.0
15:20 15.0 77 11.0 12.3 24.5 SSW 0.0 1031.9
15:30 14.9 77 10.9 10.2 19.4 S 0.0 1031.9
15:40 14.8 77 10.8 9.8 23.4 S 0.0 1032.0
15:50 14.7 78 10.9 11.8 22.0 SSE 0.0 1031.9
16:00 14.8 78 11.0 7.8 23.4 SE 0.0 1031.9
16:10 14.7 77 10.7 9.7 18.4 S 0.0 1032.2
16:20 14.7 77 10.7 9.1 20.9 SSE 0.0 1032.4
16:30 14.5 77 10.5 8.2 18.4 S 0.0 1032.3
16:40 14.5 77 10.5 7.9 17.3 S 0.0 1032.6
16:50 14.6 77 10.6 6.7 20.9 S 0.0 1032.7
17:00 14.5 77 10.5 8.5 19.4 SSE 0.0 1032.7
17:10 14.3 77 10.3 8.4 19.4 SSE 0.0 1032.8
17:20 14.2 78 10.4 6.5 13.3 SSE 0.0 1032.9
17:30 14.1 78 10.3 8.8 23.4 SSW 0.0 1033.0
17:40 13.8 79 10.2 8.3 18.4 S 0.0 1033.3
17:50 13.7 80 10.3 8.6 22.0 S 0.0 1033.4
18:00 13.5 80 10.1 6.9 19.4 SSE 0.0 1033.6
18:10 13.3 80 9.9 8.1 20.9 S 0.0 1033.8
18:20 13.1 80 9.7 7.3 18.4 S 0.0 1033.9
18:30 12.9 81 9.7 6.5 18.4 SSE 0.0 1034.2
18:40 12.8 82 9.8 6.8 18.4 S 0.0 1034.1
18:50 12.7 82 9.7 7.1 18.4 SSW 0.0 1034.2
19:00 12.7 82 9.7 6.3 13.3 SE 0.0 1034.2
19:10 12.6 82 9.6 7.4 18.4 S 0.0 1034.3
19:20 12.5 82 9.5 8.7 19.4 SSW 0.0 1034.6
19:30 12.4 83 9.6 6.1 13.3 S 0.0 1034.6
19:40 12.4 83 9.6 6.9 15.8 SE 0.0 1034.5
19:50 12.2 83 9.4 6.8 20.9 S 0.0 1034.8
20:00 12.1 84 9.5 7.6 17.3 SSE 0.0 1034.7
20:10 12.1 84 9.5 5.9 15.8 SSW 0.0 1034.8
20:20 12.1 84 9.5 6.3 13.3 SSE 0.0 1034.8
20:30 12.1 84 9.5 6.2 15.8 SE 0.0 1034.7
20:40 12.0 85 9.6 6.1 12.2 SSE 0.0 1034.8
20:50 12.0 85 9.6 6.2 12.2 SSE 0.0 1034.8
21:00 11.9 86 9.6 5.3 15.8 SSE 0.0 1034.8
21:10 11.8 86 9.5 4.9 13.3 SSW 0.0 1034.8
21:20 11.8 87 9.7 4.6 12.2 S 0.0 1034.8
21:30 11.7 87 9.6 3.9 11.2 S 0.0 1034.8
21:40 11.6 88 9.7 6.6 14.8 SSE 0.0 1034.7
21:50 11.6 88 9.7 7.2 17.3 SSE 0.0 1035.0
22:00 11.6 89 9.9 7.5 15.8 S 0.0 1034.9
22:10 11.7 89 10.0 9.2 18.4 SE 0.0 1035.0
22:20 11.7 90 10.1 9.9 18.4 S 0.0 1034.7
22:30 11.7 90 10.1 7.8 15.8 SSE 0.0 1035.0
22:40 11.6 90 10.0 8.1 20.9 SSE 0.0 1034.6
22:50 11.6 90 10.0 9.6 22.0 SE 0.0 1034.7
23:00 11.5 90 9.9 11.2 20.9 SSE 0.0 1034.4
23:10 11.5 90 9.9 13.5 24.5 SSE 0.0 1034.4
23:20 11.5 90 9.9 10.9 24.5 SE 0.0 1034.6
23:30 11.5 90 9.9 8.6 19.4 SE 0.0 1034.7
23:40 11.4 90 9.8 8.3 18.4 SSE 0.0 1034.6
23:50 11.4 90 9.8 9.9 19.4 SE 0.0 1034.5